createdAt,value
2023-04-15T00:01:07.885Z,98174.38
2023-04-15T00:03:35.644Z,98182.81
2023-04-15T00:06:03.722Z,98180.28
2023-04-15T00:08:31.173Z,98182.81
2023-04-15T00:11:02.970Z,98177.88
2023-04-15T00:13:30.304Z,98180.13
2023-04-15T00:15:57.434Z,98177.25
2023-04-15T00:18:25.488Z,98186.75
2023-04-15T00:20:52.687Z,98185.38
2023-04-15T00:23:19.879Z,98186.06
2023-04-15T00:25:47.450Z,98174.22
2023-04-15T00:28:14.619Z,98183.28
2023-04-15T00:30:43.296Z,98175.06
2023-04-15T00:33:10.949Z,98183.28
2023-04-15T00:35:38.712Z,98183.50
2023-04-15T00:38:08.038Z,98182.19
2023-04-15T00:40:35.858Z,98180.19
2023-04-15T00:43:03.043Z,98175.94
2023-04-15T00:45:30.363Z,98174.94
2023-04-15T00:47:58.728Z,98177.38
2023-04-15T00:50:25.858Z,98183.12
2023-04-15T00:52:52.877Z,98183.66
2023-04-15T00:55:20.433Z,98172.84
2023-04-15T00:57:47.483Z,98177.00
2023-04-15T01:00:14.746Z,98172.44
2023-04-15T01:02:42.314Z,98183.25
2023-04-15T01:05:09.785Z,98179.78
2023-04-15T01:07:37.022Z,98182.13
2023-04-15T01:10:04.985Z,98176.28
2023-04-15T01:12:34.287Z,98170.00
2023-04-15T01:15:02.311Z,98172.84
2023-04-15T01:17:30.143Z,98167.53
2023-04-15T01:19:58.084Z,98166.59
2023-04-15T01:22:26.753Z,98175.97
2023-04-15T01:25:06.271Z,98175.75
2023-04-15T01:27:35.415Z,98175.31
2023-04-15T01:30:05.304Z,98177.25
2023-04-15T01:32:32.846Z,98179.37
2023-04-15T01:35:00.157Z,98180.28
2023-04-15T01:37:27.741Z,98179.87
2023-04-15T01:39:54.945Z,98181.50
2023-04-15T01:42:23.183Z,98182.56
2023-04-15T01:44:51.100Z,98175.56
2023-04-15T01:47:18.615Z,98186.97
2023-04-15T01:49:45.716Z,98188.63
2023-04-15T01:52:13.338Z,98183.53
2023-04-15T01:54:40.987Z,98191.72
2023-04-15T01:57:08.312Z,98192.06
2023-04-15T01:59:36.256Z,98191.97
2023-04-15T02:02:03.438Z,98189.09
2023-04-15T02:04:30.983Z,98194.06
2023-04-15T02:07:00.804Z,98189.59
2023-04-15T02:09:28.071Z,98192.31
2023-04-15T02:11:55.473Z,98190.97
2023-04-15T02:14:24.045Z,98199.69
2023-04-15T02:16:51.595Z,98198.66
2023-04-15T02:19:18.935Z,98193.06
2023-04-15T02:21:46.052Z,98191.75
2023-04-15T02:24:18.071Z,98193.91
2023-04-15T02:26:45.457Z,98199.84
2023-04-15T02:29:12.571Z,98197.06
2023-04-15T02:31:42.304Z,98192.72
2023-04-15T02:34:09.516Z,98196.34
2023-04-15T02:36:36.782Z,98195.34
2023-04-15T02:39:05.463Z,98199.41
2023-04-15T02:41:32.732Z,98202.72
2023-04-15T02:43:59.867Z,98198.66
2023-04-15T02:46:28.980Z,98192.50
2023-04-15T02:48:56.262Z,98200.09
2023-04-15T02:51:23.691Z,98186.31
2023-04-15T02:53:51.151Z,98187.31
2023-04-15T02:56:19.818Z,98180.91
2023-04-15T02:58:47.299Z,98178.81
2023-04-15T03:01:15.068Z,98183.28
2023-04-15T03:03:42.464Z,98179.22
2023-04-15T03:06:10.056Z,98180.63
2023-04-15T03:08:37.729Z,98184.53
2023-04-15T03:11:05.219Z,98184.12
2023-04-15T03:13:32.911Z,98185.28
2023-04-15T03:16:01.030Z,98178.53
2023-04-15T03:18:29.969Z,98178.47
2023-04-15T03:21:00.642Z,98182.16
2023-04-15T03:23:28.701Z,98182.44
2023-04-15T03:25:58.063Z,98188.00
2023-04-15T03:28:26.015Z,98183.38
2023-04-15T03:30:55.419Z,98185.06
2023-04-15T03:33:22.624Z,98183.94
2023-04-15T03:35:51.181Z,98185.63
2023-04-15T03:38:18.890Z,98184.03
2023-04-15T03:40:47.777Z,98181.34
2023-04-15T03:43:14.838Z,98182.06
2023-04-15T03:45:42.334Z,98178.50
2023-04-15T03:48:17.303Z,98188.66
2023-04-15T03:50:46.168Z,98177.13
2023-04-15T03:53:13.251Z,98183.41
2023-04-15T03:55:40.314Z,98180.66
2023-04-15T03:58:07.848Z,98175.50
2023-04-15T04:00:34.946Z,98176.66
2023-04-15T04:03:02.993Z,98185.16
2023-04-15T04:05:30.618Z,98179.56
2023-04-15T04:07:57.669Z,98176.50
2023-04-15T04:10:25.132Z,98184.69
2023-04-15T04:12:52.227Z,98178.09
2023-04-15T04:15:19.312Z,98177.94
2023-04-15T04:17:46.816Z,98181.41
2023-04-15T04:20:13.988Z,98187.31
2023-04-15T04:22:41.333Z,98189.88
2023-04-15T04:25:10.187Z,98185.16
2023-04-15T04:27:37.809Z,98181.16
2023-04-15T04:30:06.500Z,98180.19
2023-04-15T04:32:34.026Z,98186.13
2023-04-15T04:35:01.156Z,98181.00
2023-04-15T04:37:28.247Z,98173.38
2023-04-15T04:39:55.656Z,98179.53
2023-04-15T04:42:23.081Z,98179.81
2023-04-15T04:44:50.180Z,98183.22
2023-04-15T04:47:17.593Z,98178.94
2023-04-15T04:49:44.704Z,98179.75
2023-04-15T04:52:11.828Z,98180.75
2023-04-15T04:54:39.096Z,98189.19
2023-04-15T04:57:07.870Z,98188.22
2023-04-15T04:59:34.885Z,98185.66
2023-04-15T05:02:02.347Z,98181.19
2023-04-15T05:04:29.582Z,98187.34
2023-04-15T05:06:56.872Z,98191.41
2023-04-15T05:09:24.184Z,98183.03
2023-04-15T05:11:51.427Z,98201.25
2023-04-15T05:14:18.462Z,98189.25
2023-04-15T05:16:45.758Z,98182.06
2023-04-15T05:19:12.795Z,98193.56
2023-04-15T05:21:39.834Z,98191.50
2023-04-15T05:24:07.150Z,98193.75
2023-04-15T05:26:34.205Z,98194.56
2023-04-15T05:29:01.854Z,98189.63
2023-04-15T05:31:29.651Z,98192.91
2023-04-15T05:33:56.829Z,98194.97
2023-04-15T05:36:23.918Z,98194.31
2023-04-15T05:38:51.320Z,98206.97
2023-04-15T05:41:19.894Z,98203.06
2023-04-15T05:43:47.216Z,98207.34
2023-04-15T05:46:14.656Z,98215.03
2023-04-15T05:48:41.782Z,98214.22
2023-04-15T05:51:09.438Z,98211.03
2023-04-15T05:53:37.008Z,98212.22
2023-04-15T05:56:04.373Z,98213.34
2023-04-15T05:58:31.519Z,98219.81
2023-04-15T06:00:59.130Z,98218.56
2023-04-15T06:03:26.736Z,98222.63
2023-04-15T06:05:54.353Z,98226.31
2023-04-15T06:08:21.595Z,98235.13
2023-04-15T06:10:49.002Z,98235.81
2023-04-15T06:13:17.127Z,98234.59
2023-04-15T06:15:44.254Z,98227.94
2023-04-15T06:18:11.810Z,98233.00
2023-04-15T06:20:39.030Z,98233.37
2023-04-15T06:23:06.220Z,98231.59
2023-04-15T06:25:33.649Z,98234.44
2023-04-15T06:28:00.850Z,98236.75
2023-04-15T06:30:28.005Z,98234.28
2023-04-15T06:32:56.237Z,98239.06
2023-04-15T06:35:23.382Z,98236.75
2023-04-15T06:37:51.735Z,98240.13
2023-04-15T06:40:19.159Z,98240.47
2023-04-15T06:42:46.501Z,98244.31
2023-04-15T06:45:16.059Z,98236.38
2023-04-15T06:47:43.660Z,98234.66
2023-04-15T06:50:11.571Z,98237.84
2023-04-15T06:52:38.698Z,98243.25
2023-04-15T06:55:07.056Z,98239.31
2023-04-15T06:57:35.199Z,98245.53
2023-04-15T07:00:05.681Z,98233.78
2023-04-15T07:02:33.655Z,98243.84
2023-04-15T07:05:00.811Z,98243.41
2023-04-15T07:07:27.877Z,98241.56
2023-04-15T07:09:55.269Z,98254.31
2023-04-15T07:12:22.404Z,98250.53
2023-04-15T07:14:49.613Z,98245.06
2023-04-15T07:17:17.102Z,98248.44
2023-04-15T07:19:44.248Z,98240.97
2023-04-15T07:22:11.466Z,98249.94
2023-04-15T07:24:38.871Z,98260.88
2023-04-15T07:27:05.993Z,98259.53
2023-04-15T07:29:33.075Z,98257.66
2023-04-15T07:32:00.501Z,98263.75
2023-04-15T07:34:27.647Z,98261.56
2023-04-15T07:36:54.743Z,98263.03
2023-04-15T07:39:22.409Z,98267.06
2023-04-15T07:41:49.541Z,98259.59
2023-04-15T07:44:16.707Z,98264.19
2023-04-15T07:46:44.191Z,98269.28
2023-04-15T07:49:11.287Z,98267.97
2023-04-15T07:51:38.483Z,98266.91
2023-04-15T07:54:05.878Z,98265.13
2023-04-15T07:56:33.031Z,98267.66
2023-04-15T07:59:02.346Z,98258.41
2023-04-15T08:01:31.569Z,98268.00
2023-04-15T08:04:02.356Z,98271.41
2023-04-15T08:06:29.853Z,98275.47
2023-04-15T08:08:57.055Z,98278.25
2023-04-15T08:11:24.925Z,98284.13
2023-04-15T08:13:52.646Z,98278.87
2023-04-15T08:16:25.053Z,98281.72
2023-04-15T08:18:54.117Z,98288.09
2023-04-15T08:21:21.601Z,98282.34
2023-04-15T08:23:50.993Z,98290.25
2023-04-15T08:26:20.012Z,98290.47
2023-04-15T08:28:47.362Z,98287.38
2023-04-15T08:31:15.444Z,98294.53
2023-04-15T08:33:43.029Z,98294.75
2023-04-15T08:36:10.112Z,98292.22
2023-04-15T08:38:37.413Z,98297.06
2023-04-15T08:41:10.963Z,98301.63
2023-04-15T08:43:47.053Z,98298.50
2023-04-15T08:46:15.677Z,98298.00
2023-04-15T08:48:43.149Z,98285.19
2023-04-15T08:51:10.967Z,98293.37
2023-04-15T08:53:38.647Z,98297.06
2023-04-15T08:56:10.193Z,98301.00
2023-04-15T08:58:38.114Z,98302.44
2023-04-15T09:01:05.640Z,98300.44
2023-04-15T09:03:33.616Z,98296.91
2023-04-15T09:06:01.102Z,98298.72
2023-04-15T09:08:28.471Z,98306.12
2023-04-15T09:10:55.809Z,98313.88
2023-04-15T09:13:22.985Z,98307.88
2023-04-15T09:15:50.426Z,98309.19
2023-04-15T09:18:31.509Z,98304.06
2023-04-15T09:21:08.742Z,98314.34
2023-04-15T09:23:36.320Z,98308.53
2023-04-15T09:26:04.482Z,98309.16
2023-04-15T09:28:31.988Z,98308.72
2023-04-15T09:31:00.319Z,98314.16
2023-04-15T09:33:29.736Z,98314.16
2023-04-15T09:36:01.453Z,98318.94
2023-04-15T09:38:28.924Z,98323.50
2023-04-15T09:40:56.100Z,98322.69
2023-04-15T09:43:23.369Z,98331.94
2023-04-15T09:45:53.627Z,98331.09
2023-04-15T09:48:23.003Z,98340.59
2023-04-15T09:50:50.465Z,98335.78
2023-04-15T09:53:22.288Z,98338.97
2023-04-15T09:55:57.576Z,98330.56
2023-04-15T09:58:27.730Z,98331.69
2023-04-15T10:00:57.224Z,98332.75
2023-04-15T10:03:26.122Z,98333.03
2023-04-15T10:05:58.405Z,98339.13
2023-04-15T10:08:30.849Z,98338.41
2023-04-15T10:10:58.362Z,98341.09
2023-04-15T10:13:28.899Z,98333.53
2023-04-15T10:16:03.553Z,98341.09
2023-04-15T10:18:34.675Z,98345.13
2023-04-15T10:21:02.329Z,98350.62
2023-04-15T10:23:29.480Z,98340.37
2023-04-15T10:25:58.829Z,98345.19
2023-04-15T10:28:26.573Z,98352.13
2023-04-15T10:30:53.693Z,98350.88
2023-04-15T10:33:23.417Z,98349.03
2023-04-15T10:35:51.809Z,98345.09
2023-04-15T10:38:44.557Z,98346.13
2023-04-15T10:41:26.716Z,98353.56
2023-04-15T10:44:01.222Z,98353.84
2023-04-15T10:46:41.599Z,98357.53
2023-04-15T10:49:25.439Z,98352.41
2023-04-15T10:51:59.907Z,98356.78
2023-04-15T10:54:26.853Z,98363.16
2023-04-15T10:57:06.584Z,98360.91
2023-04-15T10:59:37.699Z,98368.47
2023-04-15T11:02:08.157Z,98369.16
2023-04-15T11:04:55.349Z,98362.59
2023-04-15T11:07:40.543Z,98364.22
2023-04-15T11:10:13.772Z,98361.53
2023-04-15T11:12:42.047Z,98364.09
2023-04-15T11:15:28.147Z,98360.25
2023-04-15T11:17:57.024Z,98355.41
2023-04-15T11:20:24.549Z,98356.25
2023-04-15T11:23:02.569Z,98351.81
2023-04-15T11:25:41.814Z,98361.09
2023-04-15T11:28:08.932Z,98353.16
2023-04-15T11:30:37.696Z,98358.62
2023-04-15T11:33:07.110Z,98364.59
2023-04-15T11:35:35.189Z,98359.78
2023-04-15T11:38:08.725Z,98361.00
2023-04-15T11:40:37.581Z,98371.41
2023-04-15T11:43:11.508Z,98372.41
2023-04-15T11:45:47.899Z,98363.72
2023-04-15T11:48:15.562Z,98357.72
2023-04-15T11:50:43.097Z,98360.84
2023-04-15T11:53:11.931Z,98365.00
2023-04-15T11:55:50.580Z,98364.25
2023-04-15T11:58:19.437Z,98363.09
2023-04-15T12:00:53.035Z,98363.25
2023-04-15T12:03:29.031Z,98370.25
2023-04-15T12:06:19.560Z,98368.56
2023-04-15T12:09:08.625Z,98371.31
2023-04-15T12:11:41.700Z,98365.19
2023-04-15T12:14:22.478Z,98365.78
2023-04-15T12:16:53.940Z,98367.81
2023-04-15T12:19:34.805Z,98380.38
2023-04-15T12:22:08.827Z,98372.66
2023-04-15T12:24:38.254Z,98378.44
2023-04-15T12:27:10.948Z,98374.81
2023-04-15T12:29:40.421Z,98375.91
2023-04-15T12:32:20.834Z,98374.56
2023-04-15T12:34:53.169Z,98375.81
2023-04-15T12:37:20.664Z,98376.16
2023-04-15T12:39:50.120Z,98375.31
2023-04-15T12:42:18.450Z,98375.66
2023-04-15T12:44:45.836Z,98382.75
2023-04-15T12:47:13.434Z,98379.28
2023-04-15T12:49:41.223Z,98380.59
2023-04-15T12:52:08.906Z,98388.19
2023-04-15T12:54:36.425Z,98378.31
2023-04-15T12:57:06.925Z,98385.91
2023-04-15T12:59:35.204Z,98386.63
2023-04-15T13:02:03.324Z,98381.69
2023-04-15T13:04:31.641Z,98382.28
2023-04-15T13:06:58.886Z,98382.53
2023-04-15T13:09:26.068Z,98378.91
2023-04-15T13:11:54.335Z,98386.13
2023-04-15T13:14:21.548Z,98391.72
2023-04-15T13:16:48.810Z,98397.22
2023-04-15T13:19:16.364Z,98395.78
2023-04-15T13:21:43.420Z,98384.22
2023-04-15T13:24:10.675Z,98388.06
2023-04-15T13:26:38.037Z,98387.34
2023-04-15T13:29:05.409Z,98392.84
2023-04-15T13:31:32.690Z,98393.72
2023-04-15T13:34:00.194Z,98396.22
2023-04-15T13:36:27.512Z,98388.38
2023-04-15T13:38:54.843Z,98395.25
2023-04-15T13:41:22.278Z,98400.19
2023-04-15T13:43:49.375Z,98397.81
2023-04-15T13:46:16.791Z,98400.75
2023-04-15T13:48:44.137Z,98404.00
2023-04-15T13:51:11.177Z,98405.34
2023-04-15T13:53:39.786Z,98399.78
2023-04-15T13:56:08.462Z,98398.44
2023-04-15T13:58:36.743Z,98404.78
2023-04-15T14:01:05.767Z,98405.97
2023-04-15T14:03:35.309Z,98405.41
2023-04-15T14:06:02.549Z,98410.84
2023-04-15T14:08:30.144Z,98418.75
2023-04-15T14:10:57.883Z,98409.75
2023-04-15T14:13:25.327Z,98416.72
2023-04-15T14:15:52.678Z,98411.06
2023-04-15T14:18:20.586Z,98420.12
2023-04-15T14:20:47.673Z,98417.47
2023-04-15T14:23:14.799Z,98428.28
2023-04-15T14:25:42.283Z,98427.69
2023-04-15T14:28:09.459Z,98432.63
2023-04-15T14:30:36.756Z,98426.81
2023-04-15T14:33:04.361Z,98420.72
2023-04-15T14:35:31.584Z,98422.03
2023-04-15T14:37:58.737Z,98430.31
2023-04-15T14:40:26.163Z,98434.19
2023-04-15T14:42:53.240Z,98431.56
2023-04-15T14:45:20.524Z,98440.59
2023-04-15T14:47:48.292Z,98439.37
2023-04-15T14:50:15.479Z,98441.44
2023-04-15T14:52:42.593Z,98448.88
2023-04-15T14:55:11.168Z,98452.81
2023-04-15T14:57:42.266Z,98452.81
2023-04-15T15:00:13.756Z,98451.00
2023-04-15T15:02:43.753Z,98451.94
2023-04-15T15:05:12.166Z,98460.44
2023-04-15T15:07:40.965Z,98459.53
2023-04-15T15:10:08.969Z,98448.34
2023-04-15T15:12:36.525Z,98455.38
2023-04-15T15:15:12.301Z,98461.00
2023-04-15T15:17:43.542Z,98461.28
2023-04-15T15:20:10.947Z,98462.97
2023-04-15T15:22:38.094Z,98467.03
2023-04-15T15:25:06.036Z,98467.50
2023-04-15T15:27:33.143Z,98474.34
2023-04-15T15:30:00.423Z,98482.00
2023-04-15T15:32:28.013Z,98484.69
2023-04-15T15:34:55.298Z,98490.13
2023-04-15T15:37:22.394Z,98497.31
2023-04-15T15:39:50.820Z,98506.16
2023-04-15T15:42:19.788Z,98496.22
2023-04-15T15:44:49.178Z,98502.47
2023-04-15T15:47:16.751Z,98500.75
2023-04-15T15:49:44.202Z,98508.03
2023-04-15T15:52:11.760Z,98504.47
2023-04-15T15:54:42.014Z,98509.78
2023-04-15T15:57:10.168Z,98510.53
2023-04-15T15:59:41.488Z,98501.75
2023-04-15T16:02:11.232Z,98504.81
2023-04-15T16:04:39.266Z,98500.03
2023-04-15T16:07:06.537Z,98507.37
2023-04-15T16:09:33.797Z,98505.56
2023-04-15T16:12:02.080Z,98508.31
2023-04-15T16:14:29.384Z,98504.81
2023-04-15T16:16:56.629Z,98508.31
2023-04-15T16:19:24.170Z,98512.53
2023-04-15T16:21:51.829Z,98506.81
2023-04-15T16:24:18.985Z,98518.88
2023-04-15T16:26:46.445Z,98519.81
2023-04-15T16:29:13.637Z,98519.28
2023-04-15T16:31:41.483Z,98521.50
2023-04-15T16:34:09.367Z,98536.78
2023-04-15T16:36:36.792Z,98538.00
2023-04-15T16:39:04.233Z,98542.00
2023-04-15T16:41:34.353Z,98544.38
2023-04-15T16:44:03.291Z,98541.88
2023-04-15T16:46:31.674Z,98546.72
2023-04-15T16:48:59.229Z,98551.03
2023-04-15T16:51:30.503Z,98557.56
2023-04-15T16:53:57.698Z,98559.22
2023-04-15T16:56:25.157Z,98561.88
2023-04-15T16:58:52.171Z,98559.09
2023-04-15T17:01:20.602Z,98564.75
2023-04-15T17:03:48.229Z,98572.97
2023-04-15T17:06:16.334Z,98577.28
2023-04-15T17:08:46.500Z,98579.75
2023-04-15T17:11:15.196Z,98588.88
2023-04-15T17:13:42.448Z,98590.94
2023-04-15T17:16:09.786Z,98582.94
2023-04-15T17:18:38.331Z,98595.66
2023-04-15T17:21:06.035Z,98595.19
2023-04-15T17:23:33.149Z,98593.56
2023-04-15T17:26:00.595Z,98600.91
2023-04-15T17:28:27.830Z,98599.47
2023-04-15T17:30:55.770Z,98607.66
2023-04-15T17:33:55.287Z,98613.13
2023-04-15T17:36:10.213Z,98609.81
2023-04-15T17:38:37.681Z,98617.78
2023-04-15T17:41:04.846Z,98620.00
2023-04-15T17:43:32.061Z,98618.47
2023-04-15T17:45:59.559Z,98616.63
2023-04-15T17:48:26.651Z,98625.31
2023-04-15T17:50:53.791Z,98627.63
2023-04-15T17:53:21.157Z,98626.63
2023-04-15T17:55:48.291Z,98622.81
2023-04-15T17:58:15.305Z,98621.31
2023-04-15T18:00:42.671Z,98628.16
2023-04-15T18:03:10.487Z,98619.69
2023-04-15T18:05:37.774Z,98634.19
2023-04-15T18:08:06.683Z,98645.03
2023-04-15T18:10:34.748Z,98643.34
2023-04-15T18:13:03.481Z,98647.94
2023-04-15T18:15:31.335Z,98652.75
2023-04-15T18:18:00.025Z,98656.84
2023-04-15T18:20:27.872Z,98661.66
2023-04-15T18:22:55.737Z,98664.72
2023-04-15T18:25:27.623Z,98666.06
2023-04-15T18:27:55.263Z,98669.97
2023-04-15T18:30:23.607Z,98671.66
2023-04-15T18:32:50.729Z,98681.00
2023-04-15T18:35:17.925Z,98691.47
2023-04-15T18:37:45.327Z,98692.84
2023-04-15T18:40:12.643Z,98687.44
2023-04-15T18:42:39.740Z,98698.78
2023-04-15T18:45:07.683Z,98696.50
2023-04-15T18:47:34.835Z,98706.53
2023-04-15T18:50:01.981Z,98708.91
2023-04-15T18:52:30.421Z,98713.63
2023-04-15T18:54:57.544Z,98719.13
2023-04-15T18:57:31.793Z,98724.75
2023-04-15T19:00:02.470Z,98719.97
2023-04-15T19:02:29.796Z,98731.25
2023-04-15T19:04:56.956Z,98731.81
2023-04-15T19:07:24.923Z,98735.56
2023-04-15T19:09:53.078Z,98742.59
2023-04-15T19:12:20.256Z,98742.69
2023-04-15T19:14:47.638Z,98751.03
2023-04-15T19:17:14.968Z,98746.94
2023-04-15T19:19:42.328Z,98751.41
2023-04-15T19:22:09.923Z,98751.28
2023-04-15T19:24:37.134Z,98752.19
2023-04-15T19:27:04.307Z,98752.28
2023-04-15T19:29:33.426Z,98757.72
2023-04-15T19:32:00.726Z,98758.66
2023-04-15T19:34:27.798Z,98762.28
2023-04-15T19:36:56.300Z,98763.38
2023-04-15T19:39:24.202Z,98772.19
2023-04-15T19:41:52.521Z,98768.69
2023-04-15T19:44:21.530Z,98775.66
2023-04-15T19:46:51.399Z,98783.44
2023-04-15T19:49:19.188Z,98785.16
2023-04-15T19:51:50.189Z,98785.06
2023-04-15T19:54:17.584Z,98797.19
2023-04-15T19:56:44.705Z,98790.56
2023-04-15T19:59:12.906Z,98794.81
2023-04-15T20:01:40.106Z,98796.66
2023-04-15T20:04:07.583Z,98797.50
2023-04-15T20:06:34.797Z,98796.59
2023-04-15T20:09:02.133Z,98793.97
2023-04-15T20:12:09.681Z,98800.91
2023-04-15T20:14:17.807Z,98796.81
2023-04-15T20:16:45.273Z,98793.69
2023-04-15T20:19:13.302Z,98796.16
2023-04-15T20:21:40.318Z,98792.91
2023-04-15T20:24:07.851Z,98787.78
2023-04-15T20:26:34.986Z,98793.28
2023-04-15T20:29:02.170Z,98803.84
2023-04-15T20:31:29.674Z,98803.84
2023-04-15T20:33:57.188Z,98803.16
2023-04-15T20:36:24.213Z,98805.72
2023-04-15T20:38:51.525Z,98801.31
2023-04-15T20:41:18.578Z,98800.22
2023-04-15T20:43:45.618Z,98808.34
2023-04-15T20:46:20.566Z,98799.16
2023-04-15T20:48:48.681Z,98807.59
2023-04-15T20:51:16.050Z,98816.16
2023-04-15T20:53:43.252Z,98806.72
2023-04-15T20:56:10.424Z,98812.22
2023-04-15T20:58:38.687Z,98810.34
2023-04-15T21:01:05.819Z,98812.28
2023-04-15T21:03:33.121Z,98816.00
2023-04-15T21:06:00.864Z,98821.41
2023-04-15T21:08:29.967Z,98824.81
2023-04-15T21:10:57.532Z,98831.06
2023-04-15T21:13:25.093Z,98835.72
2023-04-15T21:15:54.256Z,98836.16
2023-04-15T21:18:22.345Z,98843.50
2023-04-15T21:20:57.483Z,98849.03
2023-04-15T21:23:24.658Z,98845.62
2023-04-15T21:25:52.113Z,98849.13
2023-04-15T21:28:19.219Z,98849.41
2023-04-15T21:30:46.381Z,98854.56
2023-04-15T21:33:13.782Z,98852.75
2023-04-15T21:35:41.104Z,98854.78
2023-04-15T21:38:08.403Z,98855.69
2023-04-15T21:40:40.336Z,98854.78
2023-04-15T21:43:08.091Z,98861.28
2023-04-15T21:45:36.366Z,98858.56
2023-04-15T21:48:07.818Z,98859.00
2023-04-15T21:50:37.075Z,98870.88
2023-04-15T21:53:05.551Z,98862.31
2023-04-15T21:55:32.638Z,98868.78
2023-04-15T21:58:00.046Z,98866.06
2023-04-15T22:00:29.241Z,98866.81
2023-04-15T22:02:56.731Z,98867.00
2023-04-15T22:05:23.865Z,98873.66
2023-04-15T22:07:51.070Z,98873.25
2023-04-15T22:10:19.495Z,98872.63
2023-04-15T22:12:46.566Z,98872.50
2023-04-15T22:15:13.645Z,98873.19
2023-04-15T22:17:41.374Z,98874.81
2023-04-15T22:20:09.166Z,98877.12
2023-04-15T22:22:43.994Z,98874.06
2023-04-15T22:25:12.522Z,98880.13
2023-04-15T22:27:39.711Z,98867.81
2023-04-15T22:30:07.645Z,98874.72
2023-04-15T22:32:35.066Z,98879.56
2023-04-15T22:35:02.453Z,98880.84
2023-04-15T22:37:32.383Z,98880.97
2023-04-15T22:39:59.838Z,98881.78
2023-04-15T22:42:26.970Z,98874.91
2023-04-15T22:44:54.137Z,98884.28
2023-04-15T22:47:21.577Z,98889.81
2023-04-15T22:49:48.707Z,98884.56
2023-04-15T22:52:29.382Z,98885.50
2023-04-15T22:54:58.611Z,98872.94
2023-04-15T22:57:27.844Z,98879.13
2023-04-15T22:59:55.341Z,98881.66
2023-04-15T23:02:22.953Z,98881.09
2023-04-15T23:04:50.318Z,98885.81
2023-04-15T23:07:17.346Z,98883.25
2023-04-15T23:09:44.815Z,98888.50
2023-04-15T23:12:12.133Z,98886.72
2023-04-15T23:14:39.188Z,98888.44
2023-04-15T23:17:06.566Z,98897.38
2023-04-15T23:19:33.659Z,98898.75
2023-04-15T23:22:00.963Z,98889.94
2023-04-15T23:24:28.382Z,98896.03
2023-04-15T23:26:57.219Z,98896.13
2023-04-15T23:29:24.620Z,98904.00
2023-04-15T23:31:52.362Z,98902.28
2023-04-15T23:34:19.583Z,98896.13
2023-04-15T23:36:46.979Z,98897.38
2023-04-15T23:39:14.429Z,98899.03
2023-04-15T23:41:41.813Z,98896.91
2023-04-15T23:44:09.775Z,98903.22
2023-04-15T23:46:37.227Z,98903.13
2023-04-15T23:49:04.361Z,98910.66
2023-04-15T23:51:31.458Z,98913.47
2023-04-15T23:53:58.882Z,98920.28
2023-04-15T23:56:25.982Z,98918.72
2023-04-15T23:58:53.079Z,98918.66
